createdAt,value
2023-04-20T00:01:21.419Z,8.40
2023-04-20T00:06:25.366Z,7.13
2023-04-20T00:11:28.273Z,5.93
2023-04-20T00:16:30.707Z,9.00
2023-04-20T00:21:32.703Z,7.97
2023-04-20T00:26:34.952Z,12.57
2023-04-20T00:31:38.126Z,7.75
2023-04-20T00:36:41.772Z,10.43
2023-04-20T00:41:43.916Z,6.32
2023-04-20T00:46:46.292Z,7.95
2023-04-20T00:51:48.487Z,7.28
2023-04-20T00:56:51.651Z,8.15
2023-04-20T01:01:54.428Z,6.10
2023-04-20T01:06:57.163Z,10.65
2023-04-20T01:11:59.173Z,8.93
2023-04-20T01:17:01.353Z,10.35
2023-04-20T01:22:03.424Z,8.00
2023-04-20T01:27:05.643Z,7.47
2023-04-20T01:32:10.842Z,8.90
2023-04-20T01:37:12.876Z,12.70
2023-04-20T01:42:14.956Z,13.32
2023-04-20T01:47:19.085Z,7.00
2023-04-20T01:52:21.154Z,9.40
2023-04-20T01:57:23.959Z,14.43
2023-04-20T02:02:26.966Z,9.20
2023-04-20T02:07:29.464Z,9.50
2023-04-20T02:12:31.587Z,7.00
2023-04-20T02:17:33.940Z,10.20
2023-04-20T02:22:36.801Z,9.55
2023-04-20T02:27:38.961Z,10.50
2023-04-20T02:32:41.154Z,8.45
2023-04-20T02:37:44.571Z,7.53
2023-04-20T02:42:47.155Z,9.77
2023-04-20T02:47:49.356Z,7.78
2023-04-20T02:52:51.477Z,6.70
2023-04-20T02:57:53.465Z,8.68
2023-04-20T03:02:59.465Z,10.02
2023-04-20T03:08:05.193Z,8.00
2023-04-20T03:13:07.609Z,9.48
2023-04-20T03:18:31.081Z,12.02
2023-04-20T03:23:33.368Z,11.05
2023-04-20T03:28:37.331Z,12.98
2023-04-20T03:33:39.545Z,6.78
2023-04-20T03:38:41.813Z,12.27
2023-04-20T03:43:43.872Z,10.30
2023-04-20T03:48:45.883Z,7.60
2023-04-20T03:53:48.176Z,10.30
2023-04-20T03:58:50.284Z,10.52
2023-04-20T04:04:00.086Z,9.35
2023-04-20T04:09:02.537Z,9.82
2023-04-20T04:14:05.487Z,6.97
2023-04-20T04:19:09.301Z,11.60
2023-04-20T04:24:12.721Z,8.52
2023-04-20T04:29:27.839Z,8.88
2023-04-20T04:34:34.760Z,8.25
2023-04-20T04:39:38.579Z,7.47
2023-04-20T04:44:56.295Z,6.50
2023-04-20T04:50:05.989Z,7.30
2023-04-20T04:55:09.633Z,9.05
2023-04-20T05:00:12.733Z,12.50
2023-04-20T05:05:15.533Z,7.30
2023-04-20T05:10:17.917Z,10.68
2023-04-20T05:15:19.986Z,9.48
2023-04-20T05:20:22.194Z,5.95
2023-04-20T05:25:24.475Z,7.57
2023-04-20T05:30:26.696Z,10.75
2023-04-20T05:35:28.680Z,5.60
2023-04-20T05:40:30.828Z,6.65
2023-04-20T05:45:34.242Z,8.02
2023-04-20T05:50:36.651Z,9.98
2023-04-20T05:55:38.741Z,7.65
2023-04-20T06:00:40.943Z,8.85
2023-04-20T06:05:43.084Z,10.43
2023-04-20T06:10:45.267Z,9.25
2023-04-20T06:15:47.305Z,11.25
2023-04-20T06:20:49.438Z,7.97
2023-04-20T06:25:51.586Z,10.05
2023-04-20T06:30:53.649Z,9.18
2023-04-20T06:35:56.599Z,6.82
2023-04-20T06:41:01.939Z,5.90
2023-04-20T06:46:04.046Z,8.68
2023-04-20T06:51:06.197Z,10.40
2023-04-20T06:56:08.374Z,9.10
2023-04-20T07:01:10.763Z,9.95
2023-04-20T07:06:12.894Z,11.13
2023-04-20T07:11:14.954Z,10.20
2023-04-20T07:16:17.164Z,7.00
2023-04-20T07:21:19.220Z,10.23
2023-04-20T07:26:21.227Z,11.32
2023-04-20T07:31:23.391Z,8.10
2023-04-20T07:36:26.273Z,9.65
2023-04-20T07:41:28.627Z,8.18
2023-04-20T07:46:30.976Z,8.20
2023-04-20T07:51:34.344Z,12.57
2023-04-20T07:56:45.565Z,7.82
2023-04-20T08:01:47.971Z,10.75
2023-04-20T08:06:50.311Z,6.55
2023-04-20T08:11:52.440Z,8.48
2023-04-20T08:16:54.631Z,8.30
2023-04-20T08:21:56.755Z,13.15
2023-04-20T08:26:59.334Z,8.57
2023-04-20T08:32:03.562Z,8.38
2023-04-20T08:37:06.021Z,10.77
2023-04-20T08:42:08.083Z,11.15
2023-04-20T08:47:11.885Z,10.55
2023-04-20T08:52:13.983Z,6.45
2023-04-20T08:57:16.102Z,6.70
2023-04-20T09:02:18.146Z,8.45
2023-04-20T09:07:21.305Z,7.97
2023-04-20T09:12:24.696Z,10.35
2023-04-20T09:17:34.598Z,7.30
2023-04-20T09:22:37.681Z,8.98
2023-04-20T09:27:40.109Z,12.35
2023-04-20T09:32:42.185Z,7.47
2023-04-20T09:37:48.078Z,9.23
2023-04-20T09:42:53.479Z,7.47
2023-04-20T09:47:56.093Z,5.38
2023-04-20T09:52:58.410Z,11.82
2023-04-20T09:58:04.594Z,7.75
2023-04-20T10:03:09.072Z,8.07
2023-04-20T10:08:11.483Z,8.80
2023-04-20T10:13:33.847Z,12.67
2023-04-20T10:18:35.872Z,7.35
2023-04-20T10:23:52.181Z,12.23
2023-04-20T10:28:54.321Z,7.22
2023-04-20T10:33:57.509Z,9.48
2023-04-20T10:39:02.609Z,8.88
2023-04-20T10:44:08.868Z,5.28
2023-04-20T10:49:10.953Z,8.38
2023-04-20T10:54:12.974Z,5.55
2023-04-20T10:59:17.066Z,6.75
2023-04-20T11:04:30.678Z,7.93
2023-04-20T11:09:34.437Z,6.78
2023-04-20T11:14:38.657Z,8.98
2023-04-20T11:19:41.102Z,6.95
2023-04-20T11:24:44.145Z,6.28
2023-04-20T11:29:56.360Z,7.50
2023-04-20T11:35:10.952Z,7.40
2023-04-20T11:40:14.938Z,6.60
2023-04-20T11:45:17.860Z,5.90
2023-04-20T11:50:19.909Z,5.97
2023-04-20T11:55:22.003Z,5.15
2023-04-20T12:00:24.116Z,6.30
2023-04-20T12:05:27.954Z,6.13
2023-04-20T12:10:30.223Z,5.72
2023-04-20T12:15:32.345Z,8.15
2023-04-20T12:20:34.561Z,6.50
2023-04-20T12:25:36.713Z,7.20
2023-04-20T12:30:38.764Z,5.55
2023-04-20T12:35:40.964Z,6.15
2023-04-20T12:40:43.024Z,6.72
2023-04-20T12:45:45.802Z,11.80
2023-04-20T12:50:47.999Z,8.48
2023-04-20T12:55:57.573Z,7.80
2023-04-20T13:01:03.524Z,8.70
2023-04-20T13:06:06.213Z,6.82
2023-04-20T13:11:11.975Z,7.70
2023-04-20T13:16:14.402Z,6.53
2023-04-20T13:21:16.668Z,7.88
2023-04-20T13:26:18.761Z,7.80
2023-04-20T13:31:20.862Z,6.70
2023-04-20T13:36:24.307Z,8.57
2023-04-20T13:41:26.794Z,7.50
2023-04-20T13:46:29.802Z,8.43
2023-04-20T13:51:32.540Z,7.45
2023-04-20T13:56:34.793Z,7.25
2023-04-20T14:01:37.068Z,11.15
2023-04-20T14:06:39.174Z,8.48
2023-04-20T14:11:41.264Z,8.18
2023-04-20T14:16:45.357Z,11.27
2023-04-20T14:21:47.647Z,8.00
2023-04-20T14:26:51.554Z,11.45
2023-04-20T14:31:53.660Z,7.45
2023-04-20T14:36:55.738Z,8.15
2023-04-20T14:41:57.849Z,7.03
2023-04-20T14:47:00.031Z,9.57
2023-04-20T14:52:02.123Z,8.73
2023-04-20T14:57:04.222Z,8.65
2023-04-20T15:02:06.445Z,9.77
2023-04-20T15:07:08.517Z,8.32
2023-04-20T15:12:10.821Z,10.85
2023-04-20T15:17:13.867Z,7.97
2023-04-20T15:22:16.072Z,7.70
2023-04-20T15:27:18.191Z,7.45
2023-04-20T15:32:20.414Z,7.85
2023-04-20T15:37:22.725Z,7.30
2023-04-20T15:42:24.816Z,7.93
2023-04-20T15:47:26.847Z,7.82
2023-04-20T15:52:32.403Z,10.15
2023-04-20T15:57:34.429Z,11.18
2023-04-20T16:02:38.407Z,10.45
2023-04-20T16:07:40.625Z,10.07
2023-04-20T16:12:42.715Z,7.65
2023-04-20T16:17:45.339Z,13.07
2023-04-20T16:22:47.417Z,10.60
2023-04-20T16:27:51.409Z,11.57
2023-04-20T16:32:53.566Z,10.30
2023-04-20T16:37:56.344Z,10.00
2023-04-20T16:42:58.415Z,9.57
2023-04-20T16:48:00.754Z,10.00
2023-04-20T16:53:03.649Z,9.32
2023-04-20T16:58:05.680Z,11.13
2023-04-20T17:03:10.535Z,13.85
2023-04-20T17:08:12.893Z,8.90
2023-04-20T17:13:15.393Z,10.70
2023-04-20T17:18:17.466Z,10.30
2023-04-20T17:23:19.688Z,12.45
2023-04-20T17:28:22.516Z,10.27
2023-04-20T17:33:24.600Z,9.52
2023-04-20T17:38:26.688Z,8.02
2023-04-20T17:43:28.937Z,8.90
2023-04-20T17:48:30.899Z,11.32
2023-04-20T17:53:33.089Z,11.30
2023-04-20T17:58:35.306Z,11.20
2023-04-20T18:03:37.658Z,12.35
2023-04-20T18:08:39.900Z,11.02
2023-04-20T18:13:42.275Z,12.50
2023-04-20T18:18:44.533Z,11.98
2023-04-20T18:23:46.709Z,12.48
2023-04-20T18:28:49.133Z,11.57
2023-04-20T18:33:51.186Z,12.50
2023-04-20T18:38:54.080Z,13.43
2023-04-20T18:43:56.547Z,12.15
2023-04-20T18:48:58.660Z,21.75
2023-04-20T18:54:00.779Z,12.40
2023-04-20T18:59:03.721Z,10.27
2023-04-20T19:04:09.022Z,10.02
2023-04-20T19:09:11.356Z,10.23
2023-04-20T19:14:13.460Z,10.98
2023-04-20T19:19:15.898Z,11.95
2023-04-20T19:24:18.346Z,12.40
2023-04-20T19:29:20.539Z,11.43
2023-04-20T19:34:22.782Z,13.55
2023-04-20T19:39:24.869Z,12.40
2023-04-20T19:44:28.032Z,12.82
2023-04-20T19:49:30.204Z,11.13
2023-04-20T19:54:32.393Z,12.20
2023-04-20T19:59:37.422Z,12.35
2023-04-20T20:04:39.692Z,14.55
2023-04-20T20:10:00.252Z,14.30
2023-04-20T20:15:03.936Z,11.60
2023-04-20T20:20:12.152Z,12.15
2023-04-20T20:25:15.393Z,13.38
2023-04-20T20:30:17.643Z,14.40
2023-04-20T20:35:19.704Z,11.63
2023-04-20T20:40:23.519Z,12.10
2023-04-20T20:45:25.585Z,11.20
2023-04-20T20:50:27.877Z,14.55
2023-04-20T20:55:30.302Z,13.50
2023-04-20T21:00:33.422Z,10.43
2023-04-20T21:05:35.912Z,10.95
2023-04-20T21:10:38.010Z,10.88
2023-04-20T21:15:40.549Z,9.90
2023-04-20T21:20:42.635Z,10.82
2023-04-20T21:25:44.649Z,11.25
2023-04-20T21:30:46.627Z,10.30
2023-04-20T21:35:48.677Z,10.23
2023-04-20T21:40:50.723Z,12.93
2023-04-20T21:45:52.807Z,12.82
2023-04-20T21:50:54.943Z,11.85
2023-04-20T21:55:56.966Z,14.48
2023-04-20T22:00:59.228Z,14.45
2023-04-20T22:06:01.316Z,12.35
2023-04-20T22:11:03.649Z,15.90
2023-04-20T22:16:06.572Z,13.02
2023-04-20T22:21:08.636Z,13.88
2023-04-20T22:26:10.754Z,12.35
2023-04-20T22:31:12.774Z,12.82
2023-04-20T22:36:14.824Z,12.57
2023-04-20T22:41:17.580Z,16.27
2023-04-20T22:46:19.886Z,21.30
2023-04-20T22:51:22.164Z,19.80
2023-04-20T22:56:24.582Z,20.17
2023-04-20T23:01:26.759Z,20.40
2023-04-20T23:06:29.631Z,21.95
2023-04-20T23:11:38.455Z,21.00
2023-04-20T23:16:41.042Z,22.73
2023-04-20T23:21:43.392Z,20.92
2023-04-20T23:26:45.643Z,27.88
2023-04-20T23:31:47.639Z,26.83
2023-04-20T23:36:50.501Z,26.48
2023-04-20T23:41:52.986Z,28.35
2023-04-20T23:46:55.423Z,27.42
2023-04-20T23:51:57.551Z,27.52
2023-04-20T23:56:59.686Z,29.70
